createdAt,value
2022-08-08T12:06:15.719Z,955.65
2022-08-08T12:07:17.243Z,954.61
2022-08-08T12:08:15.581Z,954.29
2022-08-08T12:09:17.178Z,953.68
2022-08-08T12:10:15.575Z,953.51
2022-08-08T12:11:18.161Z,953.43
2022-08-08T12:12:17.006Z,954.24
2022-08-08T12:13:15.711Z,954.74
2022-08-08T12:14:15.631Z,954.06
2022-08-08T12:15:15.599Z,954.47
2022-08-08T12:16:15.832Z,953.82
2022-08-08T12:17:15.557Z,953.48
2022-08-08T12:18:16.021Z,954.28
2022-08-08T12:19:15.567Z,954.64
2022-08-08T12:20:15.701Z,953.88
2022-08-08T12:21:15.715Z,954.41
2022-08-08T12:22:20.946Z,952.53
2022-08-08T12:23:30.388Z,953.24
2022-08-08T12:24:15.663Z,953.25
2022-08-08T12:25:15.695Z,952.69
2022-08-08T12:26:17.340Z,953.46
2022-08-08T12:27:18.110Z,953.64
2022-08-08T12:28:16.160Z,954.87
2022-08-08T12:29:15.700Z,953.13
2022-08-08T12:30:21.758Z,953.37
2022-08-08T12:31:15.740Z,953.22
2022-08-08T12:32:19.644Z,953.15
2022-08-08T12:33:15.674Z,954.49
2022-08-08T12:34:15.681Z,953.49
2022-08-08T12:35:17.970Z,953.97
2022-08-08T12:36:16.353Z,953.48
2022-08-08T12:37:15.690Z,954.48
2022-08-08T12:38:17.913Z,954.76
2022-08-08T12:39:15.767Z,954.06
2022-08-08T12:40:23.036Z,954.93
2022-08-08T12:41:18.259Z,955.05
2022-08-08T12:42:21.241Z,954.24
2022-08-08T12:43:15.741Z,954.65
2022-08-08T12:44:30.335Z,955.69
2022-08-08T12:45:53.672Z,954.98
2022-08-08T12:46:19.093Z,954.92
2022-08-08T12:47:15.747Z,954.33
2022-08-08T12:48:18.256Z,955.02
2022-08-08T12:49:40.098Z,954.34
2022-08-08T12:50:16.181Z,953.12
2022-08-08T12:51:15.840Z,954.13
2022-08-08T12:52:28.843Z,952.91
2022-08-08T12:53:15.742Z,952.50
2022-08-08T12:54:24.348Z,952.51
2022-08-08T12:55:29.397Z,952.23
2022-08-08T12:56:19.170Z,952.59
2022-08-08T12:57:16.982Z,951.88
2022-08-08T12:58:19.491Z,951.93
2022-08-08T12:59:15.802Z,952.44
2022-08-08T13:00:19.785Z,952.62
2022-08-08T13:01:15.818Z,951.79
2022-08-08T13:02:15.807Z,952.15
2022-08-08T13:03:16.185Z,952.56
2022-08-08T13:04:19.307Z,952.42
2022-08-08T13:05:26.366Z,951.92
2022-08-08T13:06:15.781Z,952.44
2022-08-08T13:07:16.659Z,952.69
2022-08-08T13:08:15.904Z,952.97
2022-08-08T13:09:15.841Z,952.15
2022-08-08T13:10:17.206Z,952.47
2022-08-08T13:11:15.807Z,951.71
2022-08-08T13:12:27.272Z,951.78
2022-08-08T13:13:15.893Z,951.70
2022-08-08T13:14:15.821Z,951.65
2022-08-08T13:15:15.826Z,952.06
2022-08-08T13:16:15.791Z,951.49
2022-08-08T13:18:08.431Z,951.53
2022-08-08T13:18:24.629Z,952.07
2022-08-08T13:19:17.900Z,951.75
2022-08-08T13:20:18.140Z,951.85
2022-08-08T13:21:16.360Z,951.30
2022-08-08T13:22:15.912Z,951.11
2022-08-08T13:23:30.925Z,950.83
2022-08-08T13:24:18.530Z,950.70
2022-08-08T13:25:15.985Z,951.51
2022-08-08T13:26:15.973Z,951.39
2022-08-08T13:27:15.973Z,951.35
2022-08-08T13:28:16.159Z,950.58
2022-08-08T13:29:15.981Z,950.61
2022-08-08T13:30:26.011Z,951.60
2022-08-08T13:31:16.488Z,950.03
2022-08-08T13:32:16.048Z,950.19
2022-08-08T13:33:18.556Z,949.37
2022-08-08T13:34:16.045Z,950.14
2022-08-08T13:35:29.252Z,949.97
2022-08-08T13:36:16.050Z,950.28
2022-08-08T13:37:27.703Z,949.83
2022-08-08T13:38:16.051Z,950.67
2022-08-08T13:39:17.605Z,950.59
2022-08-08T13:40:17.808Z,949.26
2022-08-08T13:41:17.298Z,949.53
2022-08-08T13:42:16.047Z,949.88
2022-08-08T13:43:16.500Z,948.44
2022-08-08T13:44:19.483Z,949.71
2022-08-08T13:45:16.076Z,948.27
2022-08-08T13:46:26.978Z,950.23
2022-08-08T13:47:16.055Z,950.00
2022-08-08T13:48:16.065Z,951.02
2022-08-08T13:50:34.665Z,950.68
2022-08-08T13:50:35.281Z,950.38
2022-08-08T13:51:34.269Z,950.15
2022-08-08T13:52:23.135Z,951.40
2022-08-08T13:53:22.607Z,951.44
2022-08-08T13:54:18.231Z,951.11
2022-08-08T13:55:28.853Z,950.79
2022-08-08T13:56:16.113Z,948.74
2022-08-08T13:57:16.096Z,949.05
2022-08-08T13:58:17.206Z,951.92
2022-08-08T13:59:16.115Z,950.64
2022-08-08T14:00:16.102Z,949.13
2022-08-08T14:01:16.110Z,949.24
2022-08-08T14:02:16.110Z,952.14
2022-08-08T14:03:53.818Z,951.21
2022-08-08T14:04:17.963Z,951.11
2022-08-08T14:05:21.633Z,950.34
2022-08-08T14:06:33.570Z,950.71
2022-08-08T14:07:16.129Z,950.67
2022-08-08T14:08:30.055Z,950.33
2022-08-08T14:09:25.152Z,952.70
2022-08-08T14:10:17.592Z,952.27
2022-08-08T14:11:16.133Z,950.81
2022-08-08T14:12:16.171Z,950.59
2022-08-08T14:13:30.751Z,951.11
2022-08-08T14:14:16.473Z,952.02
2022-08-08T14:15:16.166Z,950.70
2022-08-08T14:16:17.071Z,950.24
2022-08-08T14:17:22.460Z,950.20
2022-08-08T14:18:36.587Z,949.99
2022-08-08T14:19:22.822Z,949.68
2022-08-08T14:20:55.830Z,951.84
2022-08-08T14:21:20.835Z,950.10
2022-08-08T14:22:18.520Z,950.16
2022-08-08T14:23:21.505Z,952.41
2022-08-08T14:24:16.219Z,951.18
2022-08-08T14:25:17.842Z,952.31
2022-08-08T14:26:16.201Z,950.45
2022-08-08T14:27:16.186Z,951.64
2022-08-08T14:28:16.167Z,951.10
2022-08-08T14:29:28.561Z,951.86
2022-08-08T14:30:18.038Z,950.13
2022-08-08T14:31:23.317Z,949.88
2022-08-08T14:32:33.827Z,950.71
2022-08-08T14:33:16.328Z,951.31
2022-08-08T14:34:19.521Z,951.77
2022-08-08T14:35:16.677Z,952.10
2022-08-08T14:36:16.328Z,951.34
2022-08-08T14:37:16.438Z,951.95
2022-08-08T14:38:33.483Z,952.80
2022-08-08T14:39:16.363Z,952.69
2022-08-08T14:40:16.687Z,951.61
2022-08-08T14:41:18.582Z,951.32
2022-08-08T14:42:16.702Z,950.84
2022-08-08T14:43:18.469Z,951.41
2022-08-08T14:44:22.515Z,951.72
2022-08-08T14:45:18.335Z,952.13
2022-08-08T14:46:16.340Z,951.85
2022-08-08T14:47:21.368Z,950.93
2022-08-08T14:48:27.577Z,951.26
2022-08-08T14:49:20.430Z,951.13
2022-08-08T14:50:37.681Z,952.84
2022-08-08T14:51:17.862Z,952.35
2022-08-08T14:52:16.424Z,951.78
2022-08-08T14:53:16.414Z,951.53
2022-08-08T14:54:28.842Z,953.28
2022-08-08T14:55:16.516Z,952.42
2022-08-08T14:56:16.378Z,952.04
2022-08-08T14:57:16.692Z,951.51
2022-08-08T14:58:19.910Z,950.92
2022-08-08T14:59:22.332Z,950.73
2022-08-08T15:00:16.597Z,950.69
2022-08-08T15:01:23.867Z,952.05
2022-08-08T15:02:16.439Z,950.91
2022-08-08T15:03:17.360Z,951.22
2022-08-08T15:04:16.418Z,950.72
2022-08-08T15:05:16.611Z,952.23
2022-08-08T15:06:16.757Z,951.62
2022-08-08T15:07:22.810Z,950.60
2022-08-08T15:08:21.648Z,951.60
2022-08-08T15:09:16.430Z,951.13
2022-08-08T15:10:18.359Z,952.70
2022-08-08T15:11:19.054Z,951.81
2022-08-08T15:12:16.455Z,952.74
2022-08-08T15:13:16.426Z,952.31
2022-08-08T15:14:16.428Z,952.00
2022-08-08T15:15:18.881Z,951.54
2022-08-08T15:16:16.461Z,951.71
2022-08-08T15:17:16.479Z,952.33
2022-08-08T15:18:19.661Z,951.09
2022-08-08T15:19:16.512Z,952.76
2022-08-08T15:20:16.442Z,952.40
2022-08-08T15:21:16.447Z,952.56
2022-08-08T15:22:23.309Z,952.46
2022-08-08T15:23:16.490Z,952.42
2022-08-08T15:24:16.972Z,951.69
2022-08-08T15:25:17.993Z,951.91
2022-08-08T15:26:16.506Z,951.44
2022-08-08T15:27:57.471Z,952.13
2022-08-08T15:28:33.412Z,951.07
2022-08-08T15:29:16.531Z,950.70
2022-08-08T15:30:16.798Z,951.91
2022-08-08T15:31:25.789Z,951.15
2022-08-08T15:32:20.450Z,951.15
2022-08-08T15:33:35.644Z,952.84
2022-08-08T15:34:29.148Z,951.70
2022-08-08T15:35:16.562Z,952.88
2022-08-08T15:36:17.633Z,952.14
2022-08-08T15:37:17.233Z,952.71
2022-08-08T15:38:16.485Z,953.18
2022-08-08T15:39:16.532Z,952.68
2022-08-08T15:40:16.550Z,952.23
2022-08-08T15:41:16.589Z,951.61
2022-08-08T15:42:31.316Z,951.47
2022-08-08T15:43:35.137Z,952.28
2022-08-08T15:44:16.562Z,950.79
2022-08-08T15:45:16.833Z,950.79
2022-08-08T15:46:16.609Z,952.34
2022-08-08T15:47:19.210Z,951.75
2022-08-08T15:48:16.628Z,951.01
2022-08-08T15:49:17.064Z,951.30
2022-08-08T15:50:20.895Z,951.40
2022-08-08T15:51:16.589Z,951.76
2022-08-08T15:52:17.379Z,951.07
2022-08-08T15:53:16.594Z,952.36
2022-08-08T15:54:18.957Z,952.68
2022-08-08T15:55:16.637Z,953.42
2022-08-08T15:56:16.800Z,952.31
2022-08-08T15:57:16.639Z,951.20
2022-08-08T15:58:16.659Z,951.65
2022-08-08T15:59:16.652Z,952.35
2022-08-08T16:00:27.028Z,951.13
2022-08-08T16:01:16.735Z,951.01
2022-08-08T16:02:16.705Z,951.40
2022-08-08T16:03:16.604Z,952.48
2022-08-08T16:04:16.611Z,950.98
2022-08-08T16:05:16.659Z,952.50
2022-08-08T16:06:28.780Z,952.75
2022-08-08T16:07:16.731Z,952.49
2022-08-08T16:08:20.162Z,952.31
2022-08-08T16:13:02.572Z,952.73
2022-08-08T16:13:04.685Z,952.13
2022-08-08T16:13:09.542Z,952.24
2022-08-08T16:13:10.726Z,951.39
2022-08-08T16:13:46.333Z,952.49
2022-08-08T16:14:32.671Z,952.57
2022-08-08T16:15:16.677Z,952.40
2022-08-08T16:16:17.469Z,951.90
2022-08-08T16:17:16.637Z,953.46
2022-08-08T16:18:16.639Z,953.59
2022-08-08T16:19:19.298Z,952.10
2022-08-08T16:20:16.822Z,952.33
2022-08-08T16:21:20.714Z,952.27
2022-08-08T16:22:38.881Z,951.29
2022-08-08T16:23:16.699Z,951.34
2022-08-08T16:24:16.828Z,951.54
2022-08-08T16:25:16.707Z,953.11
2022-08-08T16:26:19.181Z,953.51
2022-08-08T16:27:17.969Z,952.73
2022-08-08T16:28:34.066Z,952.51
